This is the latest recevied weather packets stored in our database for station/object KE5OYL. If no packets are shown the sender has not sent any weather packets the latest 1 day(s).
| Time | Temp. | Humidity | Pressure | Rain* | Wind** | Luminosity | Snow |
|---|---|---|---|---|---|---|---|
| 1778081224 | 12.22° C | 89% | 1013.9 hPa | 4.83 mm | - | 120 W/m² | - |
| 1778080621 | 12.78° C | 85% | 1016.6 hPa | 1.78 mm | - | 38 W/m² | - |
| 1778079407 | 12.78° C | 84% | 1016.1 hPa | 0 mm | - | 39 W/m² | - |
| 1778078802 | 12.22° C | 83% | 1015.2 hPa | 0 mm | - | 99 W/m² | - |
| 1778078498 | 12.78° C | 81% | 1015.3 hPa | 0 mm | - | 33 W/m² | - |
| 1778078196 | 12.78° C | 80% | 1014.9 hPa | 0 mm | - | 52 W/m² | - |
| 1778077592 | 12.78° C | 79% | 1015 hPa | 0 mm | - | 50 W/m² | - |
| 1778076685 | 12.78° C | 79% | 1014.8 hPa | 0 mm | - | 56 W/m² | - |
| 1778075776 | 12.78° C | 79% | 1014.7 hPa | 0 mm | - | 48 W/m² | - |
| 1778075169 | 12.78° C | 78% | 1014.2 hPa | 0 mm | - | 68 W/m² | - |
| 1778073047 | 12.78° C | 79% | 1013.8 hPa | 0 mm | - | 47 W/m² | - |
| 1778072744 | 13.33° C | 78% | 1013.7 hPa | 0 mm | - | 43 W/m² | - |
| 1778070930 | 12.78° C | 78% | 1013.4 hPa | 0 mm | - | 35 W/m² | - |
| 1778069720 | 13.33° C | 76% | 1013.1 hPa | 0 mm | - | 18 W/m² | - |
| 1778068509 | 13.89° C | 76% | 1013.1 hPa | 0 mm | - | 5 W/m² | - |
| 1778067904 | 13.33° C | 76% | 1012.6 hPa | 0 mm | - | 2 W/m² | - |
| 1778067603 | 13.89° C | 76% | 1012.6 hPa | 0 mm | - | 1 W/m² | - |
| 1778067300 | 13.89° C | 75% | 1012.7 hPa | 0 mm | - | 1 W/m² | - |
| 1778066694 | 13.89° C | 74% | 1012.4 hPa | 0 mm | - | 0 W/m² | - |
| 1778066089 | 13.89° C | 75% | 1012.5 hPa | 0 mm | - | 0 W/m² | - |
| 1778065484 | 14.44° C | 73% | 1012.1 hPa | 0 mm | - | 0 W/m² | - |
| 1778065180 | 15° C | 73% | 1012.3 hPa | 0 mm | - | 0 W/m² | - |
| 1778064876 | 15° C | 73% | 1012.1 hPa | 0 mm | - | 0 W/m² | - |
| 1778064574 | 15° C | 73% | 1012.1 hPa | 0 mm | - | 0 W/m² | - |
| 1778064272 | 15° C | 72% | 1011.8 hPa | 0 mm | - | 0 W/m² | - |
* Rain latest hour (hover to see other rain measurements)
** Current wind speed in m/s (hover to see current wind gust speed)